Stations météo

réclame
Mon MeteoGroup
Mumbles, Grande-Bretagne (3609): Température de l'air & dewpoint: 10.08.2018 20:00:00 - 16.08.2018 20:00:00 (BST)Mumbles, Grande-Bretagne (3609): Vitesse du vent & gusts: 10.08.2018 20:00:00 - 16.08.2018 20:00:00 (BST)Mumbles, Grande-Bretagne (3609): Direction du vent: 10.08.2018 20:00:00 - 16.08.2018 20:00:00 (BST)Mumbles, Grande-Bretagne (3609): reduced air pressure: 10.08.2018 20:00:00 - 16.08.2018 20:00:00 (BST)Mumbles, Grande-Bretagne (3609): Quantités de précipitations: 10.08.2018 20:00:00 - 16.08.2018 20:00:00 (BST)
Date & Time tt [°C] td [°C] ff [km/h] ff [knt] fx [km/h] fx [knt] dd ppp [hPa] rr [mm]
16.08.2018 20:00:00 16,8 12,2 26 14 - - W 1016,4 0,0
16.08.2018 19:00:00 17,3 11,6 34 18 46 25 WSW 1015,9 0,0
16.08.2018 18:00:00 17,5 12,0 37 20 52 28 WSW 1015,7 0,0
16.08.2018 17:00:00 17,8 11,4 41 22 50 27 WSW 1015,3 0,0
16.08.2018 16:00:00 17,9 10,8 37 20 50 27 WSW 1015,1 0,0
16.08.2018 15:00:00 17,7 11,9 39 21 50 27 WSW 1014,6 0,0
16.08.2018 14:00:00 17,1 12,0 39 21 48 26 WSW 1014,3 0,0
16.08.2018 13:00:00 17,5 10,8 42 23 52 28 WSW 1014,1 0,0
16.08.2018 12:00:00 17,9 10,0 31 17 50 27 WSW 1013,9 0,0
16.08.2018 11:00:00 16,7 9,8 29 16 - - W 1013,9 0,0
16.08.2018 10:00:00 16,4 11,6 28 15 - - W 1013,6 0,0
16.08.2018 09:00:00 14,9 11,7 9 5 - - WSW 1013,7 0,0
16.08.2018 08:00:00 14,6 11,7 11 6 - - W 1013,5 0,0
16.08.2018 07:00:00 15,0 11,7 18 10 - - W 1012,7 0,2
16.08.2018 06:00:00 15,1 13,7 16 9 - - W 1012,3 1,8
16.08.2018 05:00:00 15,9 15,2 22 12 48 26 W 1012,3 3,0
16.08.2018 04:00:00 17,3 16,4 41 22 46 25 WSW 1011,8 1,4
16.08.2018 03:00:00 17,6 17,1 42 23 68 37 SW 1012,2 1,0
16.08.2018 02:00:00 17,7 17,5 59 32 68 37 SSW 1012,1 1,4
16.08.2018 01:00:00 17,7 17,3 61 33 74 40 SSW 1012,6 0,8
16.08.2018 00:00:00 17,7 17,4 55 30 70 38 SSW 1013,2 1,4
15.08.2018 23:00:00 17,8 17,1 57 31 68 37 SSW 1013,5 0,0
15.08.2018 22:00:00 17,9 17,0 55 30 67 36 SSW 1014,2 0,0
15.08.2018 21:00:00 17,9 17,0 50 27 65 35 SW 1014,9 0,0
15.08.2018 20:00:00 18,2 17,0 55 30 67 36 SW 1014,9 0,0
15.08.2018 19:00:00 18,4 17,0 50 27 57 31 SSW 1015,4 0,0
15.08.2018 18:00:00 18,5 16,9 50 27 59 32 SW 1015,9 0,0
15.08.2018 17:00:00 18,6 16,6 48 26 57 31 SW 1016,4 0,0
15.08.2018 16:00:00 18,8 16,6 48 26 57 31 SSW 1016,9 0,0
15.08.2018 15:00:00 19,1 16,6 42 23 50 27 SW 1017,7 0,0
15.08.2018 14:00:00 20,2 17,1 41 22 50 27 SW 1018,0 0,0
15.08.2018 13:00:00 19,5 17,2 44 24 52 28 SW 1018,2 0,0
15.08.2018 12:00:00 18,5 17,0 42 23 52 28 SW 1018,3 0,0
15.08.2018 11:00:00 18,4 16,5 42 23 50 27 SW 1018,2 0,0
15.08.2018 10:00:00 18,0 16,9 41 22 52 28 SW 1018,2 0,0
15.08.2018 09:00:00 17,9 17,2 42 23 50 27 SW 1018,0 0,0
15.08.2018 08:00:00 17,7 17,1 44 24 55 30 WSW 1018,0 0,6
15.08.2018 07:00:00 17,4 17,1 37 20 52 28 WSW 1018,3 0,6
15.08.2018 06:00:00 17,8 16,8 44 24 52 28 SW 1017,9 0,0
15.08.2018 05:00:00 17,8 16,4 42 23 50 27 WSW 1018,1 0,0
15.08.2018 04:00:00 17,7 16,1 35 19 - - WSW 1018,4 0,0
15.08.2018 03:00:00 17,9 16,0 28 15 - - WSW 1018,7 0,0
15.08.2018 02:00:00 17,6 15,5 31 17 - - WSW 1018,9 0,0
15.08.2018 01:00:00 17,4 14,4 31 17 - - W 1019,2 0,0
15.08.2018 00:00:00 17,4 14,5 37 20 - - WSW 1019,1 0,0
14.08.2018 23:00:00 17,4 14,5 31 17 - - W 1019,5 0,0
14.08.2018 22:00:00 17,5 14,7 26 14 - - W 1019,4 0,0
14.08.2018 21:00:00 17,4 13,9 31 17 48 26 W 1019,6 0,0
14.08.2018 20:00:00 17,8 14,4 34 18 - - WSW 1019,1 0,0
14.08.2018 19:00:00 17,7 13,7 31 17 46 25 W 1019,0 0,0
14.08.2018 18:00:00 17,8 13,8 34 18 46 25 W 1019,0 0,0
14.08.2018 17:00:00 17,9 14,5 29 16 50 27 WSW 1019,1 0,0
14.08.2018 16:00:00 18,2 14,1 37 20 54 29 WSW 1018,9 0,0
14.08.2018 15:00:00 18,2 13,9 37 20 50 27 W 1018,7 0,0
14.08.2018 14:00:00 18,3 15,0 35 19 - - WSW 1018,4 0,0
14.08.2018 13:00:00 17,6 16,4 29 16 - - W 1018,3 0,0
14.08.2018 12:00:00 17,3 16,4 29 16 - - WSW 1018,3 0,0
14.08.2018 11:00:00 18,1 15,6 29 16 - - WSW 1018,0 0,0
14.08.2018 10:00:00 18,6 15,0 24 13 - - WSW 1017,6 0,0
14.08.2018 09:00:00 18,8 15,4 16 9 - - WSW 1017,2 0,0
14.08.2018 08:00:00 18,0 16,4 13 7 - - WSW 1016,6 0,0
14.08.2018 07:00:00 17,4 16,0 8 4 - - WSW 1016,5 0,0
14.08.2018 06:00:00 17,2 15,5 9 5 - - W 1016,1 0,0
14.08.2018 05:00:00 17,0 14,8 11 6 - - W 1015,8 0,0
14.08.2018 04:00:00 16,8 14,9 9 5 - - W 1015,7 0,0
14.08.2018 03:00:00 16,5 14,3 15 8 - - WNW 1015,5 0,0
14.08.2018 02:00:00 16,2 13,6 15 8 - - WNW 1015,3 0,0
14.08.2018 01:00:00 16,3 14,5 15 8 - - W 1015,2 0,0
14.08.2018 00:00:00 16,3 14,7 13 7 - - W 1014,8 0,0
13.08.2018 23:00:00 17,1 14,6 13 7 - - W 1014,5 0,0
13.08.2018 22:00:00 17,9 15,0 13 7 - - W 1014,2 0,0
13.08.2018 21:00:00 18,3 15,1 15 8 - - W 1013,5 0,0
13.08.2018 20:00:00 19,2 13,7 9 5 - - WNW 1012,9 0,0
13.08.2018 19:00:00 20,5 12,9 18 10 - - WNW 1012,2 0,0
13.08.2018 18:00:00 20,2 13,0 21 11 - - NW 1011,8 0,0
13.08.2018 17:00:00 21,3 13,6 21 11 - - WNW 1011,4 0,0
13.08.2018 16:00:00 20,6 13,4 22 12 - - WNW 1011,0 0,0
13.08.2018 15:00:00 19,4 14,7 16 9 - - NW 1011,0 0,0
13.08.2018 14:00:00 18,8 15,2 24 13 - - NW 1010,6 0,0
13.08.2018 13:00:00 19,6 15,3 24 13 - - WNW 1010,1 0,0
13.08.2018 12:00:00 19,4 15,3 16 9 - - NW 1009,9 0,0
13.08.2018 11:00:00 18,1 14,9 15 8 - - WNW 1009,2 0,0
13.08.2018 10:00:00 17,8 15,6 11 6 - - WNW 1008,6 0,0
13.08.2018 09:00:00 17,6 15,9 8 4 - - WSW 1008,3 0,0
13.08.2018 08:00:00 16,6 15,3 2 1 - - SE 1008,0 0,2
13.08.2018 07:00:00 15,4 14,6 5 3 - - N 1007,8 0,0
13.08.2018 06:00:00 14,8 13,8 9 5 - - NNW 1007,2 0,0
13.08.2018 05:00:00 14,8 13,9 11 6 - - NW 1007,1 0,0
13.08.2018 04:00:00 15,4 14,3 9 5 - - WNW 1007,0 0,0
13.08.2018 03:00:00 15,9 14,5 4 2 - - WNW 1006,7 0,0
13.08.2018 02:00:00 16,0 14,8 8 4 - - WNW 1006,7 0,2
13.08.2018 01:00:00 16,4 15,2 11 6 - - W 1006,9 0,0
13.08.2018 00:00:00 16,4 14,7 11 6 - - W 1006,9 0,0
12.08.2018 23:00:00 16,9 15,2 15 8 - - WSW 1006,8 0,2
12.08.2018 22:00:00 17,3 15,7 22 12 - - SW 1006,7 0,0
12.08.2018 21:00:00 17,5 15,8 18 10 - - SSW 1006,4 0,0
12.08.2018 20:00:00 17,9 15,6 15 8 - - SW 1006,5 0,0
12.08.2018 19:00:00 18,1 15,9 11 6 - - S 1006,7 0,0
12.08.2018 18:00:00 18,0 15,1 9 5 - - S 1006,9 0,0
12.08.2018 17:00:00 18,1 15,9 15 8 - - SSW 1007,1 0,0
12.08.2018 16:00:00 19,0 15,9 18 10 - - SW 1007,2 0,0
12.08.2018 15:00:00 18,9 16,4 18 10 - - WSW 1007,6 0,0
12.08.2018 14:00:00 20,2 17,0 24 13 - - SW 1007,6 0,0
12.08.2018 13:00:00 18,5 16,8 31 17 - - SW 1007,5 0,0
12.08.2018 12:00:00 17,9 16,8 37 20 48 26 SSW 1007,7 0,0
12.08.2018 11:00:00 17,6 16,6 28 15 - - SE 1007,6 2,8
12.08.2018 10:00:00 19,3 16,8 18 10 - - SSE 1008,0 0,0
12.08.2018 09:00:00 18,7 16,8 28 15 - - S 1008,4 0,2
12.08.2018 08:00:00 18,3 16,8 26 14 - - SSE 1008,7 0,0
12.08.2018 07:00:00 17,8 16,5 28 15 - - SSE 1008,9 0,0
12.08.2018 06:00:00 18,0 16,6 31 17 54 29 S 1009,4 0,0
12.08.2018 05:00:00 17,8 16,7 41 22 55 30 S 1009,8 0,0
12.08.2018 04:00:00 17,6 17,0 42 23 55 30 S 1010,3 0,4
12.08.2018 03:00:00 17,5 17,1 42 23 54 29 S 1011,0 0,4
12.08.2018 02:00:00 17,7 17,0 41 22 57 31 S 1011,9 0,0
12.08.2018 01:00:00 17,8 16,9 42 23 54 29 S 1012,6 1,6
12.08.2018 00:00:00 17,6 16,8 42 23 59 32 S 1013,3 1,0
11.08.2018 23:00:00 17,3 16,9 44 24 55 30 S 1014,0 1,4
11.08.2018 22:00:00 17,1 16,7 41 22 57 31 S 1014,8 0,2
11.08.2018 21:00:00 16,8 16,4 46 25 57 31 S 1015,2 0,6
11.08.2018 20:00:00 17,0 16,5 41 22 54 29 SSW 1015,7 0,4
11.08.2018 19:00:00 17,3 16,8 37 20 50 27 SSW 1016,3 2,4
11.08.2018 18:00:00 17,6 16,7 41 22 50 27 SSW 1016,7 0,6
11.08.2018 17:00:00 16,9 16,4 28 15 - - S 1017,4 3,6
11.08.2018 16:00:00 16,9 16,5 29 16 - - SE 1018,2 7,2
11.08.2018 15:00:00 16,6 16,2 39 21 50 27 ESE 1019,0 2,0
11.08.2018 14:00:00 16,1 15,4 44 24 54 29 ESE 1019,8 0,4
11.08.2018 13:00:00 15,3 14,8 42 23 52 28 ESE 1020,3 0,2
11.08.2018 12:00:00 15,1 14,5 41 22 46 25 ESE 1021,0 0,2
11.08.2018 11:00:00 14,7 14,0 31 17 - - ESE 1021,6 0,4
11.08.2018 10:00:00 15,0 12,4 24 13 - - SE 1022,1 0,0
11.08.2018 09:00:00 15,9 12,0 24 13 - - ESE 1022,3 0,0
11.08.2018 08:00:00 14,8 12,5 15 8 - - ENE 1022,4 0,0
11.08.2018 07:00:00 12,6 10,1 11 6 - - NE 1022,7 0,0
11.08.2018 06:00:00 11,9 9,8 13 7 - - NE 1022,6 0,0
11.08.2018 05:00:00 12,3 9,6 15 8 - - NE 1022,7 0,0
11.08.2018 04:00:00 12,3 9,7 13 7 - - NNE 1022,9 0,0
11.08.2018 03:00:00 12,6 10,1 11 6 - - NNE 1023,0 0,0
11.08.2018 02:00:00 12,9 10,2 9 5 - - NNE 1023,1 0,0
11.08.2018 01:00:00 12,7 8,7 11 6 - - NNW 1023,2 0,0
11.08.2018 00:00:00 14,0 8,7 11 6 - - WNW 1023,1 0,0
10.08.2018 23:00:00 14,2 9,2 13 7 - - WNW 1022,8 0,0
10.08.2018 22:00:00 14,5 8,9 9 5 - - WNW 1022,2 0,0
10.08.2018 21:00:00 15,2 8,9 11 6 - - WNW 1021,5 0,0
10.08.2018 20:00:00 16,4 8,6 13 7 - - WNW 1021,1 0,0

tt = Température de l'air
td = dewpoint
ff = Vitesse du vent
fx = gusts
dd = Direction du vent
ppp = reduced air pressure
rr = Quantités de précipitations

stations d'obs. à proximité